BIKF/KEF METAR and TAF weather

Enter ICAO airport designator
Station Type Date Time Source
BIKF METAR 2020/09/23 03:00 UTC NOAA

BIKF 230300Z 05009KT 9999 BKN017 03/01 Q0994


Station Type Date Time Source
BIKF Decoded METAR 2020/09/23 03:00 UTC NOAA

Keflavikurflugvollur, Iceland (BIKF) 63-58N 022-36W 54M
Sep 22, 2020 - 11:00 PM EDT / 2020.09.23 0300 UTC
Wind: from the NE (050 degrees) at 10 MPH (9 KT):0
Visibility: greater than 7 mile(s):0
Sky conditions: mostly cloudy
Temperature: 37 F (3 C)
Dew Point: 33 F (1 C)
Relative Humidity: 86%
Pressure (altimeter): 29.35 in. Hg (0994 hPa)
ob: BIKF 230300Z 05009KT 9999 BKN017 03/01 Q0994
cycle: 3

Station Type Date Time Source
BIKF TAF 2020/09/23 03:24 UTC NOAA

TAF BIKF 230119Z 2303/2403 05008KT 9999 SCT020 BKN050 TX05/2315Z TN02/2303Z
BECMG 2304/2306 02023KT

Example: see airport list